createdAt,value
2018-07-07T06:01:02.424Z,91.50
2018-07-07T06:03:31.039Z,90.10
2018-07-07T06:05:59.261Z,87.40
2018-07-07T06:08:27.447Z,85.40
2018-07-07T06:10:55.738Z,90.60
2018-07-07T06:13:23.951Z,89.40
2018-07-07T06:15:52.059Z,87.60
2018-07-07T06:18:20.247Z,86.60
2018-07-07T06:20:48.436Z,87.80
2018-07-07T06:23:16.644Z,86.60
2018-07-07T06:25:44.885Z,86.30
2018-07-07T06:28:13.128Z,87.70
2018-07-07T06:30:41.749Z,86.60
2018-07-07T06:33:09.945Z,88.60
2018-07-07T06:35:38.172Z,89.90
2018-07-07T06:38:06.657Z,90.40
2018-07-07T06:40:34.864Z,91.80
2018-07-07T06:43:03.149Z,90.80
2018-07-07T06:45:31.354Z,90.60
2018-07-07T06:47:59.553Z,90.50
2018-07-07T06:50:27.729Z,89.40
2018-07-07T06:52:55.960Z,87.10
2018-07-07T06:55:24.242Z,88.00
2018-07-07T06:57:52.444Z,89.60
2018-07-07T07:00:20.589Z,88.40
2018-07-07T07:02:48.769Z,87.10
2018-07-07T07:05:17.039Z,90.00
2018-07-07T07:07:45.264Z,87.60
2018-07-07T07:10:13.450Z,86.60
2018-07-07T07:12:41.571Z,88.70
2018-07-07T07:15:09.767Z,89.80
2018-07-07T07:17:38.107Z,91.20
2018-07-07T07:20:14.954Z,91.40
2018-07-07T07:22:43.257Z,91.30
2018-07-07T07:25:11.464Z,89.90
2018-07-07T07:27:39.618Z,90.60
2018-07-07T07:30:09.249Z,88.70
2018-07-07T07:35:05.432Z,89.00
2018-07-07T07:37:33.626Z,87.50
2018-07-07T07:40:01.918Z,86.50
2018-07-07T07:42:30.133Z,91.00
2018-07-07T07:44:58.350Z,90.10
2018-07-07T07:47:26.621Z,89.30
2018-07-07T07:49:54.811Z,92.10
2018-07-07T07:52:22.925Z,91.70
2018-07-07T07:54:51.232Z,90.40
2018-07-07T07:57:19.406Z,91.40
2018-07-07T07:59:47.581Z,91.40
2018-07-07T08:02:15.748Z,91.30
2018-07-07T08:04:44.000Z,90.90
2018-07-07T08:07:12.195Z,91.60
2018-07-07T08:09:40.414Z,91.80
2018-07-07T08:12:08.653Z,93.50
2018-07-07T08:14:36.877Z,94.60
2018-07-07T08:17:05.189Z,94.30
2018-07-07T08:19:33.508Z,94.80
2018-07-07T08:22:01.725Z,94.10
2018-07-07T08:24:29.939Z,95.50
2018-07-07T08:26:58.279Z,95.00
2018-07-07T08:29:26.496Z,93.70
2018-07-07T08:31:54.701Z,93.20
2018-07-07T08:34:22.943Z,93.90
2018-07-07T08:36:51.134Z,92.70
2018-07-07T08:39:19.361Z,93.10
2018-07-07T08:41:47.624Z,93.10
2018-07-07T08:44:15.844Z,92.80
2018-07-07T08:46:44.114Z,92.90
2018-07-07T08:49:12.499Z,92.30
2018-07-07T08:51:40.713Z,90.70
2018-07-07T08:54:09.025Z,90.80
2018-07-07T08:56:37.253Z,91.10
2018-07-07T08:59:05.453Z,90.30
2018-07-07T09:01:33.741Z,90.60
2018-07-07T09:04:01.913Z,89.60
2018-07-07T09:06:30.134Z,87.90
2018-07-07T09:08:58.375Z,87.00
2018-07-07T09:11:26.621Z,84.60
2018-07-07T09:13:54.928Z,89.10
2018-07-07T09:16:23.354Z,87.90
2018-07-07T09:18:51.701Z,89.80
2018-07-07T09:21:19.880Z,87.30
2018-07-07T09:23:48.073Z,90.00
2018-07-07T09:26:16.266Z,85.10
2018-07-07T09:28:44.511Z,86.40
2018-07-07T09:31:12.710Z,85.00
2018-07-07T09:33:40.907Z,86.10
2018-07-07T09:36:09.098Z,87.30
2018-07-07T09:41:05.287Z,86.70
2018-07-07T09:43:33.483Z,85.40
2018-07-07T09:46:01.714Z,84.40
2018-07-07T09:48:29.933Z,81.70
2018-07-07T09:50:58.151Z,82.50
2018-07-07T09:53:26.406Z,85.80
2018-07-07T09:55:54.638Z,87.00
2018-07-07T09:58:22.914Z,88.40
2018-07-07T10:00:51.092Z,87.60
2018-07-07T10:03:19.292Z,87.90
2018-07-07T10:05:47.555Z,88.80
2018-07-07T10:08:15.817Z,89.20
2018-07-07T10:10:43.940Z,87.60
2018-07-07T10:13:12.117Z,87.80
2018-07-07T10:15:40.328Z,86.50
2018-07-07T10:18:08.539Z,86.60
2018-07-07T10:20:36.782Z,86.70
2018-07-07T10:23:04.948Z,86.50
2018-07-07T10:25:33.449Z,86.30
2018-07-07T10:28:01.607Z,85.60
2018-07-07T10:30:29.775Z,84.70
2018-07-07T10:32:58.032Z,82.40
2018-07-07T10:35:26.211Z,82.10
2018-07-07T10:37:54.641Z,81.10
2018-07-07T10:40:22.919Z,81.60
2018-07-07T10:42:51.146Z,82.70
2018-07-07T10:45:26.078Z,82.90
2018-07-07T10:47:54.224Z,83.20
2018-07-07T10:50:22.487Z,82.40
2018-07-07T10:52:50.705Z,81.80
2018-07-07T10:55:18.844Z,81.90
2018-07-07T10:57:47.046Z,82.80
2018-07-07T11:00:15.237Z,81.40
2018-07-07T11:02:49.046Z,82.30
2018-07-07T11:05:17.345Z,81.70
2018-07-07T11:07:45.517Z,82.30
2018-07-07T11:10:13.788Z,81.70
2018-07-07T11:12:41.974Z,82.40
2018-07-07T11:15:10.266Z,84.10
2018-07-07T11:17:38.453Z,82.70
2018-07-07T11:20:06.711Z,84.20
2018-07-07T11:22:34.817Z,83.60
2018-07-07T11:25:05.114Z,81.60
2018-07-07T11:27:33.393Z,80.50
2018-07-07T11:30:01.614Z,80.60
2018-07-07T11:32:29.852Z,79.10
2018-07-07T11:34:58.024Z,78.10
2018-07-07T11:37:26.308Z,78.30
2018-07-07T11:39:54.551Z,78.80
2018-07-07T11:42:22.845Z,79.80
2018-07-07T11:44:50.990Z,77.50
2018-07-07T11:47:19.209Z,76.80
2018-07-07T11:49:47.434Z,78.20
2018-07-07T11:52:15.711Z,79.10
2018-07-07T11:54:43.937Z,80.50
2018-07-07T11:59:40.078Z,79.50
2018-07-07T12:02:08.341Z,79.10
2018-07-07T12:04:36.709Z,77.80
2018-07-07T12:07:04.834Z,77.80
2018-07-07T12:09:33.031Z,78.60
2018-07-07T12:12:01.234Z,79.10
2018-07-07T12:14:29.450Z,79.90
2018-07-07T12:16:57.705Z,79.40
2018-07-07T12:19:25.929Z,79.80
2018-07-07T12:21:54.272Z,80.70
2018-07-07T12:24:22.433Z,80.50
2018-07-07T12:26:50.734Z,80.40
2018-07-07T12:29:18.990Z,81.20
2018-07-07T12:34:15.249Z,77.30
2018-07-07T12:36:43.488Z,77.70
2018-07-07T12:41:40.248Z,78.40
2018-07-07T12:44:08.473Z,77.00
2018-07-07T12:46:36.697Z,74.70
2018-07-07T12:49:04.869Z,73.90
2018-07-07T12:51:33.055Z,74.40
2018-07-07T12:54:01.317Z,74.50
2018-07-07T12:56:29.526Z,72.90
2018-07-07T12:58:57.914Z,73.30
2018-07-07T13:01:27.521Z,73.90
2018-07-07T13:03:57.112Z,75.70
2018-07-07T13:06:28.574Z,75.50
2018-07-07T13:08:56.795Z,76.10
2018-07-07T13:11:25.023Z,73.70
2018-07-07T13:13:53.427Z,73.90
2018-07-07T13:16:21.703Z,73.80
2018-07-07T13:18:49.982Z,73.10
2018-07-07T13:21:18.231Z,72.70
2018-07-07T13:26:14.457Z,75.10
2018-07-07T13:28:42.664Z,75.80
2018-07-07T13:31:10.880Z,75.20
2018-07-07T13:33:39.105Z,75.50
2018-07-07T13:38:37.397Z,71.10
2018-07-07T13:41:07.172Z,71.00
2018-07-07T13:43:35.720Z,70.40
2018-07-07T13:46:03.930Z,70.80
2018-07-07T13:48:32.162Z,70.50
2018-07-07T13:51:00.443Z,68.30
2018-07-07T13:53:29.465Z,68.10
2018-07-07T13:55:57.709Z,69.10
2018-07-07T13:58:26.104Z,71.00
2018-07-07T14:00:54.334Z,72.30
2018-07-07T14:05:50.562Z,72.30
2018-07-07T14:08:19.080Z,72.10
2018-07-07T14:10:47.366Z,70.10
2018-07-07T14:13:15.592Z,70.10
2018-07-07T14:15:43.796Z,70.30
2018-07-07T14:18:12.089Z,66.70
2018-07-07T14:20:40.960Z,67.30
2018-07-07T14:23:09.259Z,70.40
2018-07-07T14:25:37.509Z,72.70
2018-07-07T14:28:05.866Z,72.60
2018-07-07T14:30:34.085Z,72.30
2018-07-07T14:33:02.378Z,72.30
2018-07-07T14:35:30.666Z,71.00
2018-07-07T14:37:59.718Z,70.80
2018-07-07T14:40:28.004Z,71.80
2018-07-07T14:42:57.121Z,70.50
2018-07-07T14:45:27.528Z,68.90
2018-07-07T14:47:56.891Z,68.70
2018-07-07T14:50:25.281Z,68.90
2018-07-07T14:52:53.765Z,66.90
2018-07-07T14:55:23.270Z,66.90
2018-07-07T14:57:51.529Z,66.50
2018-07-07T15:00:22.983Z,67.60
2018-07-07T15:02:52.538Z,67.30
2018-07-07T15:05:20.726Z,67.90
2018-07-07T15:07:49.401Z,67.90
2018-07-07T15:10:17.981Z,66.20
2018-07-07T15:12:46.945Z,65.70
2018-07-07T15:15:15.433Z,65.30
2018-07-07T15:17:44.629Z,64.80
2018-07-07T15:20:12.853Z,64.40
2018-07-07T15:22:41.195Z,64.00
2018-07-07T15:25:09.448Z,62.90
2018-07-07T15:27:37.707Z,64.60
2018-07-07T15:30:07.225Z,63.70
2018-07-07T15:32:35.421Z,62.60
2018-07-07T15:35:03.698Z,62.10
2018-07-07T15:37:31.974Z,63.10
2018-07-07T15:40:00.220Z,63.80
2018-07-07T15:42:28.456Z,64.30
2018-07-07T15:44:56.746Z,64.40
2018-07-07T15:47:25.004Z,65.10
2018-07-07T15:49:53.171Z,65.60
2018-07-07T15:52:21.298Z,62.80
2018-07-07T15:54:49.487Z,62.50
2018-07-07T15:57:17.723Z,63.00
2018-07-07T15:59:45.989Z,64.40
2018-07-07T16:02:14.221Z,65.20
2018-07-07T16:04:42.437Z,65.50
2018-07-07T16:07:10.391Z,65.40
2018-07-07T16:09:38.561Z,66.10
2018-07-07T16:12:06.842Z,66.10
2018-07-07T16:14:35.056Z,64.30
2018-07-07T16:17:03.260Z,64.50
2018-07-07T16:19:32.387Z,65.70
2018-07-07T16:22:00.675Z,67.10
2018-07-07T16:24:28.877Z,68.20
2018-07-07T16:26:57.129Z,69.40
2018-07-07T16:29:25.341Z,69.60
2018-07-07T16:31:53.560Z,71.60
2018-07-07T16:34:21.834Z,70.30
2018-07-07T16:36:50.115Z,70.10
2018-07-07T16:39:18.965Z,70.00
2018-07-07T16:44:15.112Z,69.30
2018-07-07T16:46:43.297Z,69.30
2018-07-07T16:49:11.470Z,68.10
2018-07-07T16:51:39.683Z,68.80
2018-07-07T16:54:09.026Z,68.70
2018-07-07T16:56:37.223Z,70.70
2018-07-07T17:01:33.605Z,71.80
2018-07-07T17:04:01.999Z,71.90
2018-07-07T17:06:30.462Z,72.90
2018-07-07T17:08:58.789Z,73.50
2018-07-07T17:11:27.064Z,74.00
2018-07-07T17:13:55.432Z,74.60
2018-07-07T17:16:23.652Z,74.30
2018-07-07T17:18:52.111Z,74.10
2018-07-07T17:21:21.848Z,74.10
2018-07-07T17:23:51.157Z,74.40
2018-07-07T17:26:19.428Z,75.10
2018-07-07T17:28:47.667Z,74.90
2018-07-07T17:31:15.938Z,75.40
2018-07-07T17:33:45.236Z,75.60
2018-07-07T17:36:13.536Z,75.80
2018-07-07T17:38:43.385Z,76.00
2018-07-07T17:41:12.500Z,76.70
2018-07-07T17:43:40.754Z,77.50
2018-07-07T17:46:09.081Z,79.00
2018-07-07T17:48:37.361Z,78.90
2018-07-07T17:51:06.549Z,80.00
2018-07-07T17:53:34.909Z,80.10
2018-07-07T17:56:03.251Z,80.60
2018-07-07T17:58:31.602Z,81.80
2018-07-07T18:03:27.877Z,81.50
2018-07-07T18:05:56.137Z,81.10
2018-07-07T18:08:24.357Z,82.10
2018-07-07T18:10:52.617Z,82.10
2018-07-07T18:13:20.861Z,82.70
2018-07-07T18:15:49.126Z,83.20
2018-07-07T18:18:17.387Z,83.30
2018-07-07T18:20:45.663Z,83.90
2018-07-07T18:23:13.956Z,84.50
2018-07-07T18:25:42.346Z,85.10
2018-07-07T18:28:10.574Z,85.60
2018-07-07T18:30:38.816Z,86.50
2018-07-07T18:33:07.140Z,87.50
2018-07-07T18:35:35.375Z,87.30
2018-07-07T18:38:03.684Z,87.60
2018-07-07T18:40:31.883Z,88.50
2018-07-07T18:43:00.161Z,88.30
2018-07-07T18:45:28.527Z,88.80
2018-07-07T18:48:03.429Z,89.70
2018-07-07T18:50:31.694Z,90.10
2018-07-07T18:52:59.933Z,90.20
2018-07-07T18:55:28.234Z,90.80
2018-07-07T18:57:56.524Z,90.80
2018-07-07T19:00:24.753Z,90.80
2018-07-07T19:02:52.998Z,91.40
2018-07-07T19:05:21.276Z,91.50
2018-07-07T19:07:49.519Z,91.80
2018-07-07T19:10:17.734Z,91.60
2018-07-07T19:12:45.964Z,91.80
2018-07-07T19:15:21.353Z,92.00
2018-07-07T19:17:50.684Z,92.40
2018-07-07T19:22:57.720Z,92.80
2018-07-07T19:25:31.309Z,92.90
2018-07-07T19:27:59.599Z,93.30
2018-07-07T19:30:27.910Z,93.70
2018-07-07T19:33:01.709Z,93.80
2018-07-07T19:35:35.406Z,93.90
2018-07-07T19:38:03.730Z,94.20
2018-07-07T19:40:32.073Z,94.20
2018-07-07T19:43:04.322Z,94.30
2018-07-07T19:45:32.555Z,94.20
2018-07-07T19:48:00.806Z,94.50
2018-07-07T19:50:29.355Z,94.60
2018-07-07T19:52:57.589Z,94.90
2018-07-07T19:55:25.763Z,94.90
2018-07-07T19:57:54.035Z,94.80
2018-07-07T20:00:22.254Z,94.80
2018-07-07T20:02:51.153Z,94.80
2018-07-07T20:05:19.436Z,95.20
2018-07-07T20:07:47.708Z,94.90
2018-07-07T20:10:15.991Z,95.00
2018-07-07T20:12:44.297Z,95.40
2018-07-07T20:15:12.513Z,95.50
2018-07-07T20:17:52.207Z,95.80
2018-07-07T20:20:40.514Z,95.90
2018-07-07T20:23:10.074Z,96.10
2018-07-07T20:25:38.378Z,96.20
2018-07-07T20:29:15.362Z,96.40
2018-07-07T20:31:49.225Z,96.60
2018-07-07T20:34:19.684Z,96.90
2018-07-07T20:36:47.913Z,96.80
2018-07-07T20:39:16.102Z,97.00
2018-07-07T20:41:44.350Z,97.20
2018-07-07T20:44:12.569Z,97.40
2018-07-07T20:49:08.721Z,97.30
2018-07-07T20:51:37.750Z,97.30
2018-07-07T20:54:06.093Z,97.10
2018-07-07T20:56:34.318Z,97.10
2018-07-07T20:59:02.613Z,97.30
2018-07-07T21:01:30.889Z,97.10
2018-07-07T21:03:59.395Z,97.20
2018-07-07T21:06:27.906Z,97.20
2018-07-07T21:08:56.475Z,97.20
2018-07-07T21:11:24.952Z,97.30
2018-07-07T21:13:53.202Z,97.70
2018-07-07T21:16:21.430Z,97.90
2018-07-07T21:18:49.637Z,98.30
2018-07-07T21:21:17.867Z,98.60
2018-07-07T21:23:46.081Z,98.60
2018-07-07T21:26:14.242Z,99.20
2018-07-07T21:28:42.391Z,99.30
2018-07-07T21:31:10.608Z,99.70
2018-07-07T21:33:38.806Z,99.80
2018-07-07T21:36:06.975Z,99.90
2018-07-07T21:38:35.131Z,99.90
2018-07-07T21:41:03.295Z,99.90
2018-07-07T21:43:32.052Z,99.90
2018-07-07T21:46:00.252Z,99.90
2018-07-07T21:48:28.554Z,99.90
2018-07-07T21:50:56.808Z,99.90
2018-07-07T21:53:25.044Z,99.90
2018-07-07T21:55:53.361Z,99.90
2018-07-07T21:58:27.168Z,99.90
2018-07-07T22:01:11.561Z,99.90
2018-07-07T22:03:45.818Z,99.90
2018-07-07T22:06:18.253Z,99.90
2018-07-07T22:08:46.521Z,99.90
2018-07-07T22:11:14.757Z,99.90
2018-07-07T22:13:42.948Z,99.90
